Sligo Airport - TAF
(Terminal Area Forecast)

Issued at 02:21 UTC on Mon. 17-Dec-18

--- METARS(SA) ---

METAR EISG(SLIGO) 170200Z AUTO 18006KT 150V210 CAVOK 05/03 Q1005 =

--- TAFS() ---

TAF EISG(SLIGO) 170200Z 1703/1712 17007KT 9999 FEW018 SCT030 BECMG

1706/1708 15012KT BECMG 1708/1710 16016G28KT TEMPO 1711/1712 -RA

BKN013 =

--- SIGMETS(WS) ---

IE - No VALID SIGMETS/Warnings FOR THIS AREA

--- SIGMETS Volcanic(WV) ---

IE - No VALID SIGMETS/Warnings FOR THIS AREA

--- SIGMETS(WS) ---

UK - No VALID SIGMETS/Warnings FOR THIS AREA

Sligo Airport - METARs

Latest METARs for Sligo and Donegal Airports - updated every 30 mins